Estevan Airport
CYEN : now visible

Airfield :











YOU CAN JOIN US ON...

 
LOGIN :

Register | Disclaimer

   EN    FR    IT 

 









Legend :    VFR   Marginal VFR   IFR   Intensive IFR   Very Intensive IFR
Visi :
Ceiling :
>= 8 km
>= 3000ft
5 to 8 km
1000 to 3000 ft
1500m to 5 km
500 to 1000 ft
800 to 1500m
200 to 500 ft
< 800m
< 200 ft
Symbols :   Thunderstorms  Fog  Heavy snow  Heavy precipitations  Wind > 20 kt






- Airport Elevation : 1905 ft
- IATA code : YEN


CYEN - Estevan

CURRENT METAR :
  • 080711Z AUTO 03013G18KT 1 3/4SM -SN OVC010 M05/M06 A2980 RMK SLP123

EXPIRED METARs :
  • 080707Z AUTO 04013G18KT 2 1/4SM -SN BKN010 OVC015 M05/M06 A2979 RMK SLP121
  • 080645Z AUTO 04011KT 5SM -SN OVC010 M05/M06 A2979 RMK SLP120
  • 080600Z AUTO 02010G15KT 6SM BR OVC010 M04/M06 A2977 RMK SLP113
  • 080535Z AUTO 02009G17KT 6SM BR OVC010 M04/M06 A2976 RMK SLP109
  • 080524Z AUTO 03013KT 6SM -SN OVC010 M04/M06 A2975 RMK SLP107
  • 080515Z AUTO 03011KT 6SM BR OVC008 M04/M05 A2975 RMK SLP106
  • 080504Z AUTO 03010G17KT 6SM BR OVC006 M04/M05 A2974 RMK SLP105
  • 080435Z AUTO 04012G17KT 4SM BR OVC006 M04/M05 A2973 RMK SLP100

Expired Forecast.



MET'MAP, your aeronautical weather chart ! - Copyright ORBIFLY December 2007 - Disclaimer

ORBIFLY MET'MAP TEAM :

Programming & Development : Alexandra Zaïnal
Concept & original design : Baudouin d'Aumeries
Assistance for programming : Marc-Olivier Méhu
Technical & hardware support : Manuel Goepfert

Contact : metmap@orbifly.com




SOURCES & CREDITS :

   NOAA       Earth
Advisory